Time;durP1;ratioP1;P1;durP2;ratioP2;P2;SDS_P1;SDS_P2;PMS_P1;PMS_P2;Temp;Humidity;BMP_temperature;BMP_pressure;BME280_temperature;BME280_humidity;BME280_pressure;Samples;Min_cycle;Max_cycle;Signal;HPM_P1;HPM_P2
2021/10/18 00:01:25;;;;;;;6.32;4.80;;;12.70;73.40;;;;;;5046821;28;20036;-78
2021/10/18 00:03:51;;;;;;;5.53;4.13;;;12.70;73.40;;;;;;5047340;28;20024;-79
2021/10/18 00:06:17;;;;;;;5.50;4.50;;;12.70;73.50;;;;;;5041593;28;20353;-78
2021/10/18 00:08:42;;;;;;;7.32;5.55;;;12.70;73.50;;;;;;5045594;28;20021;-78
2021/10/18 00:11:08;;;;;;;9.13;6.28;;;12.80;73.50;;;;;;5046540;28;20055;-78
2021/10/18 00:13:34;;;;;;;7.90;5.90;;;12.70;73.40;;;;;;5049484;28;20013;-79
2021/10/18 00:15:59;;;;;;;7.82;6.05;;;12.70;73.40;;;;;;5049565;28;20438;-78
2021/10/18 00:18:25;;;;;;;6.35;5.07;;;12.60;73.40;;;;;;5046876;28;20426;-78
2021/10/18 00:20:51;;;;;;;11.18;7.60;;;12.60;73.40;;;;;;5048520;28;20017;-78
2021/10/18 00:23:17;;;;;;;10.30;7.13;;;12.50;73.30;;;;;;5042477;28;20028;-78
2021/10/18 00:25:42;;;;;;;9.73;7.05;;;12.50;73.40;;;;;;5046438;28;20020;-79
2021/10/18 00:28:08;;;;;;;10.52;7.35;;;12.40;73.50;;;;;;5042627;28;20113;-78
2021/10/18 00:30:34;;;;;;;9.05;6.10;;;12.40;73.60;;;;;;5041722;28;20017;-78
2021/10/18 00:32:59;;;;;;;10.60;6.40;;;12.40;73.80;;;;;;5047340;28;20116;-78
2021/10/18 00:35:25;;;;;;;7.10;5.80;;;12.40;73.80;;;;;;5048811;28;20021;-79
2021/10/18 00:37:50;;;;;;;7.22;5.07;;;12.40;73.90;;;;;;5049327;28;20107;-79
2021/10/18 00:40:16;;;;;;;7.57;5.30;;;12.40;73.90;;;;;;5047961;28;20491;-79
2021/10/18 00:42:42;;;;;;;6.38;4.70;;;12.40;73.90;;;;;;5049005;28;20056;-76
2021/10/18 00:45:09;;;;;;;5.47;4.25;;;12.50;73.80;;;;;;5039736;28;20111;-77
2021/10/18 00:47:35;;;;;;;7.80;4.90;;;12.60;73.80;;;;;;5043807;28;20022;-77
2021/10/18 00:50:02;;;;;;;6.93;4.80;;;12.60;73.80;;;;;;5047762;28;20024;-77
2021/10/18 00:52:28;;;;;;;5.18;4.25;;;12.60;73.80;;;;;;5047975;28;20040;-77
2021/10/18 00:54:54;;;;;;;6.40;4.28;;;12.60;73.70;;;;;;5044416;28;20044;-78
2021/10/18 00:57:20;;;;;;;5.63;4.40;;;12.60;73.80;;;;;;5042229;28;20392;-78
2021/10/18 00:59:47;;;;;;;8.15;5.18;;;12.60;73.80;;;;;;5038222;28;20017;-78
2021/10/18 01:02:13;;;;;;;7.03;4.25;;;12.60;73.80;;;;;;5047370;28;20414;-79
2021/10/18 01:04:39;;;;;;;7.70;6.10;;;12.60;73.90;;;;;;5045393;28;20068;-79
2021/10/18 01:07:06;;;;;;;7.97;6.10;;;12.60;73.90;;;;;;5048144;28;20442;-78
2021/10/18 01:09:31;;;;;;;10.45;7.38;;;12.50;74.00;;;;;;5045008;28;20600;-78
2021/10/18 01:11:57;;;;;;;11.73;7.30;;;12.40;74.00;;;;;;5040098;28;20036;-79
2021/10/18 01:14:22;;;;;;;10.25;7.10;;;12.30;74.80;;;;;;5042333;28;20029;-79
2021/10/18 01:16:48;;;;;;;9.10;6.47;;;12.20;74.30;;;;;;5049333;28;20029;-79
2021/10/18 01:19:16;;;;;;;12.50;8.02;;;12.20;74.40;;;;;;5047704;28;20030;-78
2021/10/18 01:21:43;;;;;;;10.48;6.60;;;12.20;74.50;;;;;;5048394;28;20051;-79
2021/10/18 01:24:09;;;;;;;7.28;5.70;;;12.10;74.70;;;;;;5041749;28;20014;-78
2021/10/18 01:26:34;;;;;;;10.68;7.30;;;12.10;74.80;;;;;;5046713;28;20238;-80
2021/10/18 01:29:03;;;;;;;11.32;8.20;;;12.10;74.80;;;;;;5049256;28;20047;-79
2021/10/18 01:31:29;;;;;;;12.65;7.78;;;12.10;74.90;;;;;;5046621;28;20027;-78
2021/10/18 01:33:54;;;;;;;9.80;7.07;;;12.00;75.00;;;;;;5048601;28;20032;-80
2021/10/18 01:36:20;;;;;;;8.93;6.97;;;12.00;75.10;;;;;;5043194;28;20053;-78
2021/10/18 01:38:46;;;;;;;9.55;7.00;;;12.00;75.20;;;;;;5045881;28;20116;-78
2021/10/18 01:41:12;;;;;;;13.20;9.70;;;11.90;75.20;;;;;;5045627;28;20104;-79
2021/10/18 01:43:38;;;;;;;9.80;8.00;;;11.90;75.20;;;;;;5052376;28;20033;-78
2021/10/18 01:46:03;;;;;;;10.35;8.13;;;11.90;75.30;;;;;;5048620;28;20024;-79
2021/10/18 01:48:30;;;;;;;11.63;9.48;;;11.90;75.40;;;;;;5049343;28;20033;-78
2021/10/18 01:50:56;;;;;;;13.13;8.95;;;11.80;75.40;;;;;;5045006;28;20040;-78
2021/10/18 01:53:21;;;;;;;10.50;7.93;;;11.80;75.40;;;;;;5053092;28;20029;-79
2021/10/18 01:55:47;;;;;;;13.75;9.32;;;11.90;75.50;;;;;;5051315;28;20108;-78
2021/10/18 01:58:13;;;;;;;11.60;8.30;;;11.90;75.50;;;;;;5044740;28;20440;-78
2021/10/18 02:00:42;;;;;;;9.48;7.45;;;11.90;75.50;;;;;;5049319;28;20120;-78
2021/10/18 02:03:08;;;;;;;9.75;6.97;;;11.90;75.40;;;;;;5050322;28;20116;-78
2021/10/18 02:05:34;;;;;;;9.73;7.40;;;11.90;75.40;;;;;;5037353;28;20030;-78
2021/10/18 02:08:00;;;;;;;11.55;7.95;;;12.00;75.40;;;;;;5044919;28;20033;-78
2021/10/18 02:10:25;;;;;;;10.05;7.60;;;11.90;75.30;;;;;;5041289;28;20479;-78
2021/10/18 02:12:51;;;;;;;9.18;6.40;;;11.90;75.40;;;;;;5052104;28;20048;-78
2021/10/18 02:15:17;;;;;;;8.48;6.47;;;12.00;75.40;;;;;;5053753;28;20017;-78
2021/10/18 02:17:43;;;;;;;11.15;7.97;;;12.00;75.40;;;;;;5044239;28;20029;-78
2021/10/18 02:20:11;;;;;;;9.55;7.57;;;12.00;75.30;;;;;;5043424;28;20040;-78
2021/10/18 02:22:37;;;;;;;8.65;6.22;;;12.00;75.40;;;;;;5040769;28;20393;-78
2021/10/18 02:25:05;;;;;;;10.02;7.15;;;12.00;75.40;;;;;;5050887;28;20029;-78
2021/10/18 02:27:30;;;;;;;11.43;8.70;;;12.00;75.30;;;;;;5039215;28;20033;-77
2021/10/18 02:29:57;;;;;;;8.18;6.53;;;12.00;75.30;;;;;;5049582;28;20040;-78
2021/10/18 02:32:23;;;;;;;10.57;7.72;;;12.00;75.30;;;;;;5050869;28;20128;-78
2021/10/18 02:34:48;;;;;;;8.55;7.10;;;12.10;75.30;;;;;;5050333;28;20100;-78
2021/10/18 02:37:14;;;;;;;9.45;7.78;;;12.00;75.30;;;;;;5045111;28;20030;-77
2021/10/18 02:39:40;;;;;;;7.72;6.70;;;12.00;75.30;;;;;;5052389;28;20031;-78
2021/10/18 02:42:05;;;;;;;10.32;7.80;;;12.00;75.30;;;;;;5051875;28;20078;-78
2021/10/18 02:44:31;;;;;;;10.90;8.40;;;12.00;75.40;;;;;;5046808;28;20025;-79
2021/10/18 02:46:56;;;;;;;10.63;8.10;;;12.00;75.40;;;;;;5044400;28;20017;-79
2021/10/18 02:49:22;;;;;;;8.27;6.03;;;12.00;75.50;;;;;;5044243;28;20063;-79
2021/10/18 02:51:50;;;;;;;11.57;8.20;;;12.00;75.60;;;;;;5048963;28;20052;-78
2021/10/18 02:54:16;;;;;;;9.20;6.35;;;12.00;75.50;;;;;;5047248;28;20037;-78
2021/10/18 02:56:42;;;;;;;8.85;7.15;;;12.00;75.60;;;;;;5044854;28;20036;-78
2021/10/18 02:59:07;;;;;;;10.13;7.20;;;12.00;75.60;;;;;;5051134;28;20021;-78
2021/10/18 03:01:33;;;;;;;7.97;6.25;;;12.00;75.60;;;;;;5044168;28;20127;-78
2021/10/18 03:03:59;;;;;;;6.97;5.88;;;12.00;75.60;;;;;;5049917;28;20183;-78
2021/10/18 03:06:25;;;;;;;9.48;7.72;;;12.00;75.60;;;;;;5050153;28;20033;-78
2021/10/18 03:08:50;;;;;;;9.10;6.85;;;12.00;75.60;;;;;;5049137;28;20025;-78
2021/10/18 03:11:16;;;;;;;7.38;5.43;;;12.00;75.70;;;;;;5044304;28;20041;-78
2021/10/18 03:13:42;;;;;;;6.63;5.30;;;12.00;75.80;;;;;;5039067;28;20025;-78
2021/10/18 03:16:07;;;;;;;8.30;5.95;;;12.00;75.80;;;;;;5039996;28;20045;-77
2021/10/18 03:18:33;;;;;;;7.65;5.70;;;12.00;75.80;;;;;;5048555;28;20036;-78
2021/10/18 03:20:58;;;;;;;7.22;5.30;;;12.00;75.80;;;;;;5051835;28;20021;-78
2021/10/18 03:23:24;;;;;;;6.63;5.15;;;12.00;75.80;;;;;;5047877;28;20024;-78
2021/10/18 03:25:49;;;;;;;6.80;5.63;;;12.00;75.90;;;;;;5045691;28;20032;-78
2021/10/18 03:28:15;;;;;;;7.05;5.30;;;12.00;75.80;;;;;;5042494;28;20033;-78
2021/10/18 03:30:41;;;;;;;9.90;7.55;;;12.00;75.90;;;;;;5039896;28;20708;-77
2021/10/18 03:33:06;;;;;;;7.60;5.78;;;12.00;76.00;;;;;;5040923;28;20039;-78
2021/10/18 03:35:32;;;;;;;8.13;6.15;;;12.00;76.10;;;;;;5051061;28;20100;-78
2021/10/18 03:37:57;;;;;;;8.30;7.10;;;12.00;76.10;;;;;;5045287;28;20029;-78
2021/10/18 03:40:23;;;;;;;8.35;6.72;;;12.00;76.30;;;;;;5046346;28;20491;-78
2021/10/18 03:42:49;;;;;;;13.65;9.20;;;11.90;76.30;;;;;;5050008;28;20029;-78
2021/10/18 03:45:15;;;;;;;9.00;6.07;;;11.80;76.40;;;;;;5050539;28;20013;-78
2021/10/18 03:47:40;;;;;;;9.13;5.85;;;11.80;76.50;;;;;;5044527;28;20048;-78
2021/10/18 03:50:07;;;;;;;9.15;7.18;;;11.80;76.60;;;;;;5048487;28;20471;-78
2021/10/18 03:52:33;;;;;;;12.73;9.57;;;11.70;76.60;;;;;;5042318;28;20056;-78
2021/10/18 03:54:58;;;;;;;12.80;8.93;;;11.70;76.70;;;;;;5049996;28;20480;-77
2021/10/18 03:57:24;;;;;;;10.75;8.40;;;11.60;76.80;;;;;;5048128;28;20032;-78
2021/10/18 03:59:49;;;;;;;11.60;8.27;;;11.60;77.00;;;;;;5049594;28;20503;-78
2021/10/18 04:02:15;;;;;;;10.65;8.10;;;11.50;77.00;;;;;;5043831;28;20027;-78
2021/10/18 04:04:41;;;;;;;10.45;6.70;;;11.50;77.20;;;;;;5038830;28;20021;-77
2021/10/18 04:07:06;;;;;;;7.78;6.13;;;11.40;77.20;;;;;;5045682;28;20030;-78
2021/10/18 04:09:33;;;;;;;7.85;6.35;;;11.50;77.30;;;;;;5047745;28;20025;-78
2021/10/18 04:11:58;;;;;;;8.63;6.30;;;11.50;77.40;;;;;;5042267;28;20041;-78
2021/10/18 04:14:24;;;;;;;8.05;5.93;;;11.40;77.30;;;;;;5044080;28;20041;-78
2021/10/18 04:16:49;;;;;;;7.57;5.43;;;11.40;77.30;;;;;;5046424;28;20112;-78
2021/10/18 04:19:15;;;;;;;7.75;5.78;;;11.40;77.40;;;;;;5040998;28;20025;-77
2021/10/18 04:21:40;;;;;;;7.38;5.90;;;11.40;77.50;;;;;;5049304;28;20040;-78
2021/10/18 04:24:06;;;;;;;8.50;6.07;;;11.40;77.50;;;;;;5046902;28;20062;-78
2021/10/18 04:26:32;;;;;;;9.70;6.70;;;11.30;77.50;;;;;;5049728;28;20056;-78
2021/10/18 04:28:57;;;;;;;8.07;5.68;;;11.30;77.60;;;;;;5047330;28;20029;-78
2021/10/18 04:31:26;;;;;;;6.80;5.95;;;11.30;77.70;;;;;;5047628;28;20502;-78
2021/10/18 04:33:52;;;;;;;8.13;5.68;;;11.30;77.60;;;;;;5044606;28;20147;-78
2021/10/18 04:36:18;;;;;;;7.65;5.57;;;11.30;77.70;;;;;;5050300;28;20111;-78
2021/10/18 04:38:43;;;;;;;6.95;5.72;;;11.20;77.70;;;;;;5037980;28;20606;-78
2021/10/18 04:41:09;;;;;;;7.10;5.43;;;11.20;77.80;;;;;;5042745;28;20037;-79
2021/10/18 04:43:34;;;;;;;8.02;5.43;;;11.10;77.90;;;;;;5042785;28;20033;-78
2021/10/18 04:46:00;;;;;;;7.60;5.75;;;11.10;78.00;;;;;;5041150;28;20099;-78
2021/10/18 04:48:25;;;;;;;7.55;5.57;;;11.10;78.00;;;;;;5041224;28;20028;-78
2021/10/18 04:50:51;;;;;;;7.88;6.20;;;11.10;78.10;;;;;;5044828;28;20037;-79
2021/10/18 04:53:16;;;;;;;6.95;5.45;;;11.10;78.00;;;;;;5048841;28;20040;-79
2021/10/18 04:55:42;;;;;;;8.40;5.63;;;11.00;77.90;;;;;;5037731;28;20429;-80
2021/10/18 04:58:07;;;;;;;7.50;5.82;;;11.00;78.00;;;;;;5046548;28;20115;-79
2021/10/18 05:00:36;;;;;;;6.93;5.57;;;11.00;78.10;;;;;;5049683;28;20017;-80
2021/10/18 05:03:02;;;;;;;7.38;6.00;;;11.00;78.20;;;;;;5042345;28;20044;-79
2021/10/18 05:05:29;;;;;;;6.50;5.45;;;11.00;78.20;;;;;;5034666;28;20480;-79
2021/10/18 05:08:06;;;;;;;6.70;5.45;;;10.90;78.10;;;;;;5038742;28;20510;-79
2021/10/18 05:10:33;;;;;;;8.18;6.32;;;10.90;78.20;;;;;;5043414;28;20014;-79
2021/10/18 05:12:58;;;;;;;6.65;5.50;;;10.90;78.20;;;;;;5043120;28;20057;-79
2021/10/18 05:15:24;;;;;;;8.43;5.55;;;10.80;78.30;;;;;;5043278;28;20056;-79
2021/10/18 05:17:50;;;;;;;5.78;4.97;;;10.70;78.40;;;;;;5039717;28;20026;-78
2021/10/18 05:20:16;;;;;;;7.07;5.35;;;10.70;78.50;;;;;;5042725;28;20048;-79
2021/10/18 05:22:42;;;;;;;7.40;5.82;;;10.70;78.60;;;;;;5045564;28;20022;-79
2021/10/18 05:25:08;;;;;;;8.63;6.63;;;10.70;78.60;;;;;;5047353;28;20079;-79
2021/10/18 05:27:38;;;;;;;7.80;5.70;;;10.70;78.60;;;;;;5040315;28;20433;-78
2021/10/18 05:30:06;;;;;;;7.35;5.97;;;10.70;78.70;;;;;;5047797;28;20067;-78
2021/10/18 05:32:32;;;;;;;8.52;6.22;;;10.60;78.70;;;;;;5046301;28;20063;-78
2021/10/18 05:34:57;;;;;;;7.13;5.75;;;10.70;78.70;;;;;;5047039;28;20440;-78
2021/10/18 05:37:23;;;;;;;7.95;5.60;;;10.60;78.70;;;;;;5048106;28;20112;-78
2021/10/18 05:39:48;;;;;;;7.93;5.90;;;10.60;78.80;;;;;;5043928;28;20025;-78
2021/10/18 05:42:14;;;;;;;8.55;6.45;;;10.60;78.80;;;;;;5049297;28;20101;-78
2021/10/18 05:44:39;;;;;;;7.72;6.15;;;10.70;78.80;;;;;;5047473;28;20037;-78
2021/10/18 05:47:05;;;;;;;8.30;6.18;;;10.70;78.80;;;;;;5041263;28;20033;-79
2021/10/18 05:49:31;;;;;;;8.63;6.57;;;10.70;78.80;;;;;;5046801;28;20078;-79
2021/10/18 05:51:56;;;;;;;7.38;5.75;;;10.70;78.90;;;;;;5047938;28;20123;-78
2021/10/18 05:54:22;;;;;;;7.90;5.93;;;10.70;78.90;;;;;;5040472;28;20021;-79
2021/10/18 05:56:49;;;;;;;8.00;5.88;;;10.70;79.00;;;;;;5035608;28;20061;-79
2021/10/18 05:59:16;;;;;;;6.97;5.57;;;10.60;79.10;;;;;;5039660;28;20499;-79
2021/10/18 06:01:42;;;;;;;9.15;6.20;;;10.60;79.10;;;;;;5047195;28;20029;-78
2021/10/18 06:04:08;;;;;;;8.40;6.35;;;10.60;79.20;;;;;;5046991;28;20025;-78
2021/10/18 06:06:35;;;;;;;8.70;6.07;;;10.60;79.30;;;;;;5045391;28;20031;-78
2021/10/18 06:09:01;;;;;;;8.15;6.20;;;10.60;79.20;;;;;;5047082;28;20021;-78
2021/10/18 06:11:27;;;;;;;7.85;6.25;;;10.70;79.30;;;;;;5043459;28;20047;-79
2021/10/18 06:13:53;;;;;;;6.38;5.45;;;10.60;79.20;;;;;;5039451;28;20026;-78
2021/10/18 06:16:18;;;;;;;8.32;6.57;;;10.70;79.30;;;;;;5042520;28;20036;-78
2021/10/18 06:18:44;;;;;;;8.00;6.13;;;10.60;79.20;;;;;;5043797;28;20127;-79
2021/10/18 06:21:09;;;;;;;10.95;6.72;;;10.70;79.30;;;;;;5048455;28;20030;-76
2021/10/18 06:23:35;;;;;;;9.60;6.57;;;10.60;79.30;;;;;;5046181;28;20475;-76
2021/10/18 06:26:00;;;;;;;10.07;7.80;;;10.70;79.30;;;;;;5044230;28;20021;-76
2021/10/18 06:28:26;;;;;;;10.23;7.22;;;10.70;79.20;;;;;;5044529;28;20048;-77
2021/10/18 06:30:51;;;;;;;10.25;7.97;;;10.70;79.20;;;;;;5047910;28;20029;-77
2021/10/18 06:33:20;;;;;;;7.75;6.28;;;10.60;79.30;;;;;;5066043;28;20052;-77
2021/10/18 06:35:46;;;;;;;11.20;8.60;;;10.60;79.40;;;;;;5043105;28;20111;-77
2021/10/18 06:38:18;;;;;;;10.88;8.45;;;10.70;79.60;;;;;;5044424;28;20444;-76
2021/10/18 06:40:45;;;;;;;9.32;7.35;;;10.60;79.60;;;;;;5041106;28;20028;-77
2021/10/18 06:43:11;;;;;;;9.68;6.72;;;10.70;79.60;;;;;;5049110;28;20078;-78
2021/10/18 06:45:38;;;;;;;11.50;8.88;;;10.70;79.60;;;;;;5052038;28;20063;-76
2021/10/18 06:48:04;;;;;;;11.88;9.10;;;10.60;79.90;;;;;;5048459;28;20475;-77
2021/10/18 06:50:29;;;;;;;12.77;8.90;;;10.60;80.00;;;;;;5050803;28;20039;-77
2021/10/18 06:52:56;;;;;;;13.27;9.85;;;10.60;80.20;;;;;;5051601;28;20037;-76
2021/10/18 06:55:23;;;;;;;11.27;8.93;;;10.60;80.50;;;;;;5054693;28;20086;-77
2021/10/18 06:57:48;;;;;;;11.85;9.52;;;10.60;80.50;;;;;;5051141;28;20108;-77
2021/10/18 07:00:14;;;;;;;13.63;9.90;;;10.60;80.50;;;;;;5050613;28;20086;-77
2021/10/18 07:02:40;;;;;;;15.50;11.25;;;10.70;80.60;;;;;;5051706;28;20395;-81
2021/10/18 07:05:06;;;;;;;11.90;9.05;;;10.70;80.70;;;;;;5052488;28;20036;-77
2021/10/18 07:07:32;;;;;;;10.48;8.80;;;10.70;80.60;;;;;;5052647;28;20028;-77
2021/10/18 07:10:00;;;;;;;15.70;11.25;;;10.80;80.50;;;;;;5047051;28;20021;-77
2021/10/18 07:12:30;;;;;;;13.27;10.13;;;10.80;80.70;;;;;;5041631;28;20029;-77
2021/10/18 07:14:57;;;;;;;13.57;11.20;;;10.70;80.80;;;;;;5052183;28;20059;-77
2021/10/18 07:17:22;;;;;;;13.70;9.30;;;10.70;81.00;;;;;;5044803;28;20116;-77
2021/10/18 07:19:49;;;;;;;12.27;9.52;;;10.70;81.20;;;;;;5050677;28;20627;-78
2021/10/18 07:22:19;;;;;;;12.73;9.65;;;10.70;81.30;;;;;;5040769;28;20364;-77
2021/10/18 07:24:45;;;;;;;14.02;10.85;;;10.70;81.30;;;;;;5050398;28;20017;-77
2021/10/18 07:27:11;;;;;;;15.63;11.23;;;10.70;81.30;;;;;;5046137;28;20549;-78
2021/10/18 07:29:38;;;;;;;13.60;9.93;;;10.70;81.30;;;;;;5048428;28;20021;-77
2021/10/18 07:32:04;;;;;;;15.68;12.15;;;10.80;81.30;;;;;;5050661;28;20033;-77
2021/10/18 07:34:32;;;;;;;15.10;10.90;;;10.80;81.30;;;;;;5051974;28;20052;-77
2021/10/18 07:36:58;;;;;;;15.90;11.75;;;10.80;81.30;;;;;;5041696;28;20021;-77
2021/10/18 07:39:26;;;;;;;16.50;12.48;;;10.70;81.30;;;;;;5049191;28;20083;-77
2021/10/18 07:41:55;;;;;;;15.95;11.88;;;10.70;81.50;;;;;;5051181;28;20483;-78
2021/10/18 07:44:24;;;;;;;16.85;11.82;;;10.80;81.50;;;;;;5048388;28;20029;-76
2021/10/18 07:46:51;;;;;;;14.90;11.45;;;10.90;81.50;;;;;;5046508;28;20033;-78
2021/10/18 07:49:17;;;;;;;12.98;9.68;;;10.90;81.40;;;;;;5043931;28;20025;-78
2021/10/18 07:51:42;;;;;;;15.88;11.90;;;11.00;81.20;;;;;;5052977;28;20124;-78
2021/10/18 07:54:08;;;;;;;16.30;12.25;;;11.00;80.90;;;;;;5051771;28;20041;-76
2021/10/18 07:56:34;;;;;;;13.93;10.43;;;11.10;80.90;;;;;;5047568;28;20087;-76
2021/10/18 07:58:59;;;;;;;10.23;8.55;;;11.10;80.80;;;;;;5050320;28;20578;-76
2021/10/18 08:01:25;;;;;;;9.48;7.65;;;11.20;80.60;;;;;;5040004;28;20056;-76
2021/10/18 08:03:51;;;;;;;13.45;10.27;;;11.30;80.50;;;;;;5050633;28;20021;-76
2021/10/18 08:06:16;;;;;;;14.98;9.77;;;11.40;80.20;;;;;;5049838;28;20036;-76
2021/10/18 08:08:48;;;;;;;15.05;11.30;;;11.40;80.10;;;;;;5043521;28;20515;-77
2021/10/18 08:11:14;;;;;;;15.38;10.88;;;11.40;79.90;;;;;;5046240;28;20025;-78
2021/10/18 08:13:39;;;;;;;13.95;10.30;;;11.40;79.80;;;;;;5041240;28;20041;-77
2021/10/18 08:16:06;;;;;;;13.65;9.60;;;11.60;79.70;;;;;;5048495;28;20032;-78
2021/10/18 08:18:31;;;;;;;9.82;8.02;;;11.70;79.40;;;;;;5038786;28;20087;-75
2021/10/18 08:20:58;;;;;;;10.27;7.88;;;11.80;79.10;;;;;;5042445;28;20032;-75
2021/10/18 08:23:23;;;;;;;10.77;8.45;;;11.90;78.90;;;;;;5042547;28;20021;-74
2021/10/18 08:25:49;;;;;;;15.98;10.73;;;12.00;78.60;;;;;;5037313;28;20036;-76
2021/10/18 08:28:15;;;;;;;8.73;7.13;;;12.00;78.20;;;;;;5037587;28;20633;-75
2021/10/18 08:30:41;;;;;;;11.93;7.90;;;12.00;78.00;;;;;;5038420;28;20021;-74
2021/10/18 08:33:07;;;;;;;9.02;7.22;;;12.10;77.90;;;;;;5038929;28;20026;-75
2021/10/18 08:35:33;;;;;;;8.43;6.13;;;12.10;77.70;;;;;;5045092;28;20024;-76
2021/10/18 08:38:16;;;;;;;9.80;7.88;;;12.20;77.70;;;;;;5040760;28;20040;-77
2021/10/18 08:41:06;;;;;;;10.15;7.68;;;12.20;77.50;;;;;;5042936;28;20167;-77
2021/10/18 08:46:06;;;;;;;9.90;8.52;;;12.30;77.30;;;;;;5039361;28;20021;-75
2021/10/18 08:48:32;;;;;;;12.75;10.15;;;12.40;77.20;;;;;;5042131;28;20048;-76
2021/10/18 08:50:58;;;;;;;10.93;8.65;;;12.30;76.70;;;;;;5039106;28;20029;-76
2021/10/18 08:53:24;;;;;;;12.32;8.90;;;12.40;76.60;;;;;;5040056;28;20108;-76
2021/10/18 08:55:50;;;;;;;11.70;9.32;;;12.50;76.50;;;;;;5040528;28;20182;-76
2021/10/18 08:58:16;;;;;;;10.88;9.05;;;12.50;76.20;;;;;;5035530;28;20114;-76
2021/10/18 09:00:53;;;;;;;8.98;7.13;;;12.50;76.30;;;;;;5041789;28;20018;-78
2021/10/18 09:03:29;;;;;;;12.57;10.32;;;12.60;76.10;;;;;;5041810;28;20487;-75
2021/10/18 09:06:14;;;;;;;11.88;9.07;;;12.60;75.70;;;;;;5038818;28;20026;-76
2021/10/18 09:09:02;;;;;;;9.60;6.70;;;12.70;75.60;;;;;;5040313;28;20391;-76
2021/10/18 09:11:29;;;;;;;9.15;7.50;;;12.70;75.60;;;;;;5036339;28;20032;-74
2021/10/18 09:13:59;;;;;;;12.07;8.88;;;12.80;75.30;;;;;;5038086;28;20037;-76
2021/10/18 09:16:36;;;;;;;14.00;10.02;;;12.90;75.00;;;;;;5041368;28;20336;-74
2021/10/18 09:19:22;;;;;;;11.70;9.00;;;13.00;75.30;;;;;;5038316;28;20111;-76
2021/10/18 09:21:52;;;;;;;11.30;8.95;;;13.10;74.50;;;;;;5044588;28;20059;-76
2021/10/18 09:24:40;;;;;;;9.73;8.07;;;13.10;74.30;;;;;;5040339;28;20039;-77
2021/10/18 09:27:18;;;;;;;9.93;7.78;;;13.20;74.30;;;;;;5039877;28;20192;-77
2021/10/18 09:29:47;;;;;;;12.05;9.10;;;13.30;74.20;;;;;;5041220;28;20518;-76
2021/10/18 09:32:30;;;;;;;12.30;9.57;;;13.30;73.80;;;;;;5038088;28;20073;-76
2021/10/18 09:35:13;;;;;;;11.60;9.30;;;13.40;73.80;;;;;;5037115;28;20589;-76
2021/10/18 09:37:40;;;;;;;12.45;10.15;;;13.40;73.80;;;;;;5038781;28;20021;-77
2021/10/18 09:40:07;;;;;;;10.25;8.68;;;13.40;73.60;;;;;;5045285;28;20017;-76
2021/10/18 09:42:32;;;;;;;13.65;10.75;;;13.40;73.70;;;;;;5040908;28;20033;-77
2021/10/18 09:48:01;;;;;;;14.65;11.13;;;13.50;73.40;;;;;;5039540;28;21733;-75
2021/10/18 10:56:16;;;;;;;11.82;8.55;;;14.50;69.90;;;;;;5050394;28;20072;-77
2021/10/18 10:58:53;;;;;;;12.45;10.05;;;14.70;70.20;;;;;;5042733;28;20526;-76
2021/10/18 11:01:43;;;;;;;13.10;9.93;;;14.70;70.20;;;;;;5042177;28;20512;-76
2021/10/18 11:04:30;;;;;;;13.57;10.73;;;14.70;70.00;;;;;;5043005;28;20070;-77
2021/10/18 11:07:00;;;;;;;15.30;10.18;;;14.80;69.80;;;;;;5044492;28;20041;-75
2021/10/18 11:09:39;;;;;;;12.35;9.90;;;14.80;69.60;;;;;;5049450;28;20021;-74
2021/10/18 11:12:08;;;;;;;12.93;10.23;;;14.80;69.70;;;;;;5041440;28;20030;-75
2021/10/18 11:14:34;;;;;;;12.05;8.60;;;15.00;69.40;;;;;;5043594;28;20052;-78
2021/10/18 11:17:00;;;;;;;9.30;7.18;;;15.10;69.20;;;;;;5044955;28;20053;-80
2021/10/18 11:19:25;;;;;;;11.80;9.80;;;15.20;69.20;;;;;;5042196;28;20041;-79
2021/10/18 11:22:00;;;;;;;9.80;8.05;;;15.30;68.80;;;;;;5041849;28;20471;-77
2021/10/18 11:24:39;;;;;;;13.40;8.07;;;15.30;68.60;;;;;;5041302;28;20425;-77
2021/10/18 11:27:05;;;;;;;10.10;8.00;;;15.40;68.00;;;;;;5042694;28;20078;-78
2021/10/18 11:29:32;;;;;;;11.55;9.20;;;15.40;67.80;;;;;;5054331;28;20380;-74
2021/10/18 11:32:09;;;;;;;11.15;9.20;;;15.40;67.70;;;;;;5050965;28;20032;-75
2021/10/18 11:34:35;;;;;;;11.07;9.00;;;15.30;67.90;;;;;;5050096;28;20099;-74
2021/10/18 11:37:01;;;;;;;12.65;10.18;;;15.20;67.90;;;;;;5042353;28;20103;-78
2021/10/18 11:39:29;;;;;;;12.38;10.02;;;15.20;68.00;;;;;;5047438;28;20474;-78
2021/10/18 11:42:09;;;;;;;11.48;8.88;;;15.20;68.30;;;;;;5049270;28;20111;-78
2021/10/18 11:44:48;;;;;;;13.68;10.77;;;15.30;68.40;;;;;;5048819;28;20106;-75
2021/10/18 11:47:30;;;;;;;12.57;10.45;;;15.30;68.10;;;;;;5051630;28;20025;-78
2021/10/18 11:50:07;;;;;;;12.95;9.15;;;15.30;68.10;;;;;;5050134;28;20033;-79
2021/10/18 11:52:34;;;;;;;10.02;8.38;;;15.40;68.30;;;;;;5049387;28;20487;-79
2021/10/18 11:54:59;;;;;;;12.70;9.25;;;15.50;68.30;;;;;;5053119;28;20024;-78
2021/10/18 11:57:29;;;;;;;13.80;10.65;;;15.60;67.80;;;;;;5051808;28;20032;-79
2021/10/18 11:59:54;;;;;;;13.23;10.23;;;15.50;67.50;;;;;;5058070;28;20628;-78
2021/10/18 12:02:20;;;;;;;12.82;10.70;;;15.50;67.70;;;;;;5062091;28;20144;-75
2021/10/18 12:04:59;;;;;;;13.52;10.05;;;15.40;67.60;;;;;;5047526;28;20158;-75
2021/10/18 12:07:48;;;;;;;12.90;10.20;;;15.40;67.90;;;;;;5050919;28;20498;-77
2021/10/18 12:10:20;;;;;;;12.27;9.25;;;15.40;67.70;;;;;;5047671;28;20029;-75
2021/10/18 12:13:25;;;;;;;11.05;8.75;;;15.60;67.70;;;;;;5056645;28;20036;-77
2021/10/18 12:15:56;;;;;;;12.50;10.13;;;15.70;67.40;;;;;;5081141;28;20052;-77
2021/10/18 12:18:25;;;;;;;13.45;10.32;;;15.70;67.20;;;;;;5068724;28;20080;-79
2021/10/18 12:20:54;;;;;;;15.05;10.43;;;15.80;66.80;;;;;;5065831;28;20518;-79
2021/10/18 12:23:29;;;;;;;13.85;11.13;;;15.70;66.80;;;;;;5045426;28;20439;-76
2021/10/18 12:26:12;;;;;;;14.93;11.25;;;15.50;66.80;;;;;;5054751;28;20048;-78
2021/10/18 12:28:42;;;;;;;13.90;11.10;;;15.50;67.00;;;;;;5051461;28;20025;-76
2021/10/18 12:31:27;;;;;;;10.18;7.93;;;15.50;67.30;;;;;;5047818;28;20037;-76
2021/10/18 12:34:02;;;;;;;10.00;7.55;;;15.60;67.70;;;;;;5052672;28;20029;-76
2021/10/18 12:36:30;;;;;;;14.25;10.45;;;15.60;67.70;;;;;;5054681;28;20025;-75
2021/10/18 12:38:56;;;;;;;9.75;7.97;;;15.70;67.20;;;;;;5046231;28;20434;-77
2021/10/18 12:41:23;;;;;;;11.10;8.65;;;15.80;67.00;;;;;;5052888;28;20035;-75
2021/10/18 12:43:50;;;;;;;9.02;6.90;;;15.90;67.10;;;;;;5050238;28;20036;-75
2021/10/18 12:46:28;;;;;;;9.05;7.32;;;16.00;67.00;;;;;;5054296;28;20132;-74
2021/10/18 12:49:05;;;;;;;12.52;9.80;;;16.00;66.70;;;;;;5063442;28;20025;-75
2021/10/18 12:51:46;;;;;;;11.43;9.27;;;16.00;66.50;;;;;;5048974;28;20037;-75
2021/10/18 12:54:23;;;;;;;10.07;8.60;;;16.00;66.40;;;;;;5048522;28;20427;-76
2021/10/18 12:57:00;;;;;;;8.90;7.20;;;16.10;66.10;;;;;;5047574;28;20028;-75
2021/10/18 12:59:26;;;;;;;8.75;6.93;;;16.10;66.20;;;;;;5046689;28;20031;-75
2021/10/18 13:02:14;;;;;;;15.05;9.38;;;16.20;66.20;;;;;;5048150;28;20021;-76
2021/10/18 13:04:40;;;;;;;12.73;8.95;;;16.00;65.60;;;;;;5045096;28;20024;-76
2021/10/18 13:07:05;;;;;;;11.60;9.00;;;15.90;65.70;;;;;;5053061;28;20024;-76
2021/10/18 13:09:31;;;;;;;13.48;8.23;;;15.90;65.60;;;;;;5049211;28;20025;-77
2021/10/18 13:11:56;;;;;;;8.82;6.65;;;15.90;65.80;;;;;;5047843;28;20033;-77
2021/10/18 13:14:22;;;;;;;12.23;8.63;;;16.00;66.00;;;;;;5042844;28;20045;-76
2021/10/18 13:16:47;;;;;;;10.23;7.55;;;16.10;65.80;;;;;;5051296;28;20029;-77
2021/10/18 13:19:12;;;;;;;10.75;7.78;;;16.10;65.80;;;;;;5048000;28;20017;-76
2021/10/18 13:21:38;;;;;;;8.55;6.38;;;16.20;65.80;;;;;;5047364;28;20632;-76
2021/10/18 13:24:04;;;;;;;10.75;7.78;;;16.30;65.90;;;;;;5043570;28;20029;-77
2021/10/18 13:26:29;;;;;;;7.60;6.10;;;16.20;65.40;;;;;;5049316;28;20037;-77
2021/10/18 13:28:55;;;;;;;9.00;6.95;;;16.30;65.70;;;;;;5052913;28;20017;-77
2021/10/18 13:31:20;;;;;;;7.90;6.40;;;16.30;65.70;;;;;;5052162;28;20443;-74
2021/10/18 13:33:46;;;;;;;8.77;6.63;;;16.30;65.50;;;;;;5052345;28;20140;-75
2021/10/18 13:36:12;;;;;;;9.60;7.32;;;16.30;65.60;;;;;;5050813;28;20075;-74
2021/10/18 13:38:38;;;;;;;8.40;5.97;;;16.40;65.60;;;;;;5051821;28;20150;-75
2021/10/18 13:41:04;;;;;;;7.97;5.82;;;16.50;65.70;;;;;;5054273;28;20025;-75
2021/10/18 13:43:30;;;;;;;8.77;7.10;;;16.60;65.50;;;;;;5055316;28;20025;-75
2021/10/18 13:45:56;;;;;;;8.90;6.80;;;16.60;65.50;;;;;;5059427;28;20616;-75
2021/10/18 13:48:24;;;;;;;8.65;6.82;;;16.60;65.70;;;;;;5054590;28;20028;-75
2021/10/18 13:50:49;;;;;;;9.75;6.63;;;16.60;65.60;;;;;;5053173;28;20043;-75
2021/10/18 13:53:16;;;;;;;9.18;6.55;;;16.60;65.60;;;;;;5043565;28;20038;-76
2021/10/18 13:55:42;;;;;;;9.88;7.70;;;16.60;65.50;;;;;;5052683;28;20059;-75